Aviation Digital Data Service (ADDS)

Output produced by TAFs form (0155 UTC 25 February 2018)
found at http://aviationweather.gov/adds/tafs/
 
KGSO 242320Z 2500/2524 20010KT P6SM BKN100 
     FM251000 21009KT P6SM BKN020 
     FM251300 21011KT P6SM BKN150 
     FM251700 23013KT P6SM BKN025 
     FM251900 23011KT P6SM OVC040